Time;durP1;ratioP1;P1;durP2;ratioP2;P2;SDS_P1;SDS_P2;PMS_P1;PMS_P2;Temp;Humidity;BMP_temperature;BMP_pressure;BME280_temperature;BME280_humidity;BME280_pressure;Samples;Min_cycle;Max_cycle;Signal;HPM_P1;HPM_P2
2022/03/28 00:02:24;;;;;;;24.55;15.98;;;;;;;11.55;35.91;95930.41;4963069;28;20220;-66
2022/03/28 00:04:50;;;;;;;20.98;16.15;;;;;;;11.59;35.65;95926.50;4961067;28;20271;-67
2022/03/28 00:07:15;;;;;;;20.92;16.48;;;;;;;11.50;35.47;95926.50;4962812;28;20255;-63
2022/03/28 00:09:41;;;;;;;20.70;16.15;;;;;;;11.30;36.03;95922.97;4962262;28;20228;-62
2022/03/28 00:12:07;;;;;;;22.17;15.98;;;;;;;11.20;35.17;95921.16;4959600;28;20576;-64
2022/03/28 00:14:33;;;;;;;20.67;16.45;;;;;;;11.03;36.27;95925.22;4966021;28;20243;-64
2022/03/28 00:16:58;;;;;;;23.88;16.40;;;;;;;11.03;35.90;95927.03;4958024;28;20225;-64
2022/03/28 00:19:24;;;;;;;18.30;15.82;;;;;;;10.93;36.24;95937.53;4959394;28;20327;-65
2022/03/28 00:21:50;;;;;;;22.58;15.02;;;;;;;10.94;36.12;95923.41;4959872;28;20244;-64
2022/03/28 00:24:15;;;;;;;23.85;16.40;;;;;;;10.93;35.94;95921.75;4963121;28;20224;-64
2022/03/28 00:26:41;;;;;;;19.75;15.80;;;;;;;10.90;36.11;95915.88;4958102;28;20224;-64
2022/03/28 00:29:06;;;;;;;21.92;16.50;;;;;;;10.97;35.92;95920.50;4956737;28;20262;-67
2022/03/28 00:31:32;;;;;;;22.98;16.08;;;;;;;10.96;35.95;95918.84;4970271;28;20724;-68
2022/03/28 00:33:57;;;;;;;21.25;15.93;;;;;;;10.87;36.25;95911.72;4964304;28;20231;-67
2022/03/28 00:36:23;;;;;;;22.05;16.42;;;;;;;10.78;36.32;95915.97;4954897;28;20231;-67
2022/03/28 00:38:51;;;;;;;22.38;16.92;;;;;;;10.67;36.63;95904.72;4957825;28;20227;-67
2022/03/28 00:41:16;;;;;;;23.60;17.40;;;;;;;10.58;37.03;95898.41;4954786;28;20237;-67
2022/03/28 00:43:56;;;;;;;21.52;15.40;;;;;;;10.46;37.16;95897.66;4955346;28;20267;-65
2022/03/28 00:46:22;;;;;;;20.42;15.27;;;;;;;10.44;37.41;95909.28;4970645;28;20228;-65
2022/03/28 00:48:48;;;;;;;19.27;14.07;;;;;;;10.55;37.29;95910.03;4966322;28;20235;-65
2022/03/28 00:51:15;;;;;;;17.00;13.20;;;;;;;10.75;36.59;95907.53;4964955;28;20228;-67
2022/03/28 00:53:41;;;;;;;16.75;13.35;;;;;;;10.70;37.13;95907.09;4958982;28;20248;-68
2022/03/28 00:56:07;;;;;;;17.27;13.32;;;;;;;10.37;37.43;95906.31;4941682;28;20303;-67
2022/03/28 00:58:33;;;;;;;19.65;13.35;;;;;;;10.33;37.82;95912.81;4936832;28;20313;-68
2022/03/28 01:00:59;;;;;;;19.88;13.43;;;;;;;10.40;38.18;95910.47;4960395;28;20780;-69
2022/03/28 01:03:25;;;;;;;15.90;13.88;;;;;;;10.40;37.47;95907.84;4957779;28;20252;-69
2022/03/28 01:05:50;;;;;;;16.00;12.85;;;;;;;10.30;38.06;95903.38;4964989;28;20316;-65
2022/03/28 01:08:16;;;;;;;16.33;13.32;;;;;;;10.36;38.33;95902.03;4960388;28;20208;-65
2022/03/28 01:10:45;;;;;;;16.73;13.45;;;;;;;10.32;37.89;95898.00;4963426;28;20215;-68
2022/03/28 01:13:11;;;;;;;15.82;12.68;;;;;;;10.20;38.36;95897.19;4957894;28;20225;-64
2022/03/28 01:15:36;;;;;;;18.08;12.60;;;;;;;10.12;38.42;95897.81;4963271;28;20220;-67
2022/03/28 01:18:09;;;;;;;14.82;12.48;;;;;;;10.01;39.22;95890.00;4962056;28;20232;-67
2022/03/28 01:20:39;;;;;;;17.42;13.00;;;;;;;10.23;38.81;95894.31;4957056;28;20292;-67
2022/03/28 01:23:06;;;;;;;17.30;12.52;;;;;;;10.21;38.31;95903.28;4963717;28;20244;-67
2022/03/28 01:25:31;;;;;;;18.85;12.88;;;;;;;10.07;38.63;95888.66;4993216;28;20209;-67
2022/03/28 01:27:59;;;;;;;16.63;12.40;;;;;;;10.06;38.89;95895.72;4963182;28;20227;-65
2022/03/28 01:30:29;;;;;;;18.08;13.18;;;;;;;9.83;39.30;95896.75;4957322;28;20232;-65
2022/03/28 01:32:56;;;;;;;15.85;12.52;;;;;;;9.73;39.97;95904.59;4989674;28;20259;-67
2022/03/28 01:35:41;;;;;;;14.80;11.57;;;;;;;9.66;40.41;95904.22;4959990;28;20251;-67
2022/03/28 01:38:09;;;;;;;15.93;12.82;;;;;;;9.75;40.27;95907.06;4988713;28;20223;-66
2022/03/28 01:40:38;;;;;;;14.93;12.02;;;;;;;9.74;40.34;95900.16;4966033;28;20208;-67
2022/03/28 01:43:04;;;;;;;20.20;12.20;;;;;;;9.68;40.32;95896.25;4965506;28;20256;-67
2022/03/28 01:45:30;;;;;;;15.18;12.25;;;;;;;9.62;40.87;95894.94;4968423;28;20291;-64
2022/03/28 01:47:56;;;;;;;17.30;12.20;;;;;;;9.80;40.04;95904.91;4996147;28;20224;-65
2022/03/28 01:50:22;;;;;;;15.25;11.90;;;;;;;9.69;40.35;95892.63;4960472;28;20250;-65
2022/03/28 01:52:48;;;;;;;19.27;12.80;;;;;;;9.48;40.64;95893.41;4960561;28;20267;-64
2022/03/28 01:55:14;;;;;;;17.05;12.90;;;;;;;9.62;40.90;95892.31;4957511;28;20224;-66
2022/03/28 01:57:41;;;;;;;16.67;13.07;;;;;;;9.67;40.72;95894.56;4960134;28;20252;-67
2022/03/28 02:00:12;;;;;;;19.17;12.20;;;;;;;9.43;41.11;95895.56;4965495;28;20234;-64
2022/03/28 02:02:37;;;;;;;18.98;13.10;;;;;;;9.34;41.61;95896.31;4994950;28;20223;-68
2022/03/28 02:05:04;;;;;;;17.42;12.98;;;;;;;9.29;41.93;95895.84;4961273;28;20214;-68
2022/03/28 02:07:30;;;;;;;16.83;12.05;;;;;;;9.18;42.13;95893.25;4958867;28;20327;-69
2022/03/28 02:09:55;;;;;;;17.35;12.60;;;;;;;9.21;42.06;95893.81;4966523;28;20318;-68
2022/03/28 02:12:21;;;;;;;21.08;13.43;;;;;;;9.25;42.12;95895.28;4964089;28;20233;-69
2022/03/28 02:14:47;;;;;;;14.95;12.50;;;;;;;9.51;41.34;95892.31;4962674;28;20315;-63
2022/03/28 02:17:12;;;;;;;19.23;12.50;;;;;;;9.36;41.33;95894.41;4969052;28;20244;-66
2022/03/28 02:19:38;;;;;;;20.00;12.40;;;;;;;9.20;42.13;95891.34;4971742;28;20318;-66
2022/03/28 02:22:04;;;;;;;16.33;12.00;;;;;;;9.37;41.84;95895.25;4964850;28;20233;-63
2022/03/28 02:24:30;;;;;;;17.38;13.32;;;;;;;9.26;42.02;95894.31;4960912;28;20224;-64
2022/03/28 02:26:56;;;;;;;16.02;11.90;;;;;;;9.15;42.06;95893.50;4962866;28;20230;-63
2022/03/28 02:29:21;;;;;;;14.32;12.20;;;;;;;8.93;42.74;95894.34;4964384;28;20716;-63
2022/03/28 02:31:47;;;;;;;18.40;12.80;;;;;;;8.83;43.64;95902.09;4966779;28;20282;-63
2022/03/28 02:34:12;;;;;;;17.25;12.43;;;;;;;8.96;43.10;95894.13;4967886;28;20234;-65
2022/03/28 02:36:39;;;;;;;18.80;13.15;;;;;;;9.03;43.06;95900.53;4966268;28;20228;-64
2022/03/28 02:39:05;;;;;;;18.58;12.80;;;;;;;8.96;43.37;95897.56;4966585;28;20263;-66
2022/03/28 02:41:30;;;;;;;24.27;14.20;;;;;;;8.72;43.73;95902.09;4966090;28;20263;-66
2022/03/28 02:43:56;;;;;;;20.38;13.02;;;;;;;8.79;43.70;95890.16;4963468;28;20216;-64
2022/03/28 02:46:21;;;;;;;22.15;12.57;;;;;;;8.69;44.10;95892.69;4995467;28;20227;-62
2022/03/28 02:48:47;;;;;;;17.50;11.60;;;;;;;8.73;44.21;95894.09;4962740;28;20233;-62
2022/03/28 02:51:12;;;;;;;21.50;12.52;;;;;;;8.73;43.91;95895.91;4972092;28;20224;-64
2022/03/28 02:53:38;;;;;;;18.13;12.32;;;;;;;8.46;44.77;95896.22;4969392;28;20221;-64
2022/03/28 02:56:04;;;;;;;18.77;11.98;;;;;;;8.50;44.70;95898.50;4966582;28;20283;-64
2022/03/28 02:58:29;;;;;;;24.45;13.43;;;;;;;8.49;44.63;95898.63;4961658;28;20295;-64
2022/03/28 03:00:55;;;;;;;22.17;12.63;;;;;;;8.41;44.70;95901.00;4961742;28;20228;-64
2022/03/28 03:03:20;;;;;;;20.42;12.70;;;;;;;8.53;44.79;95903.50;4964744;28;20232;-64
2022/03/28 03:05:46;;;;;;;20.13;11.88;;;;;;;8.66;44.14;95913.91;4961722;28;20250;-64
2022/03/28 03:08:11;;;;;;;22.15;13.10;;;;;;;8.49;44.56;95901.25;4965255;28;20200;-66
2022/03/28 03:10:37;;;;;;;20.13;12.07;;;;;;;8.33;45.06;95912.84;4970709;28;20215;-66
2022/03/28 03:13:03;;;;;;;17.40;12.05;;;;;;;8.38;44.81;95910.72;4966158;28;20228;-66
2022/03/28 03:15:28;;;;;;;17.67;11.95;;;;;;;8.38;44.84;95905.47;4967738;28;20235;-64
2022/03/28 03:17:54;;;;;;;18.45;12.30;;;;;;;8.31;44.93;95904.28;4968233;28;20603;-64
2022/03/28 03:20:19;;;;;;;22.80;12.90;;;;;;;8.24;45.36;95920.59;4957115;28;20235;-65
2022/03/28 03:22:45;;;;;;;20.37;11.87;;;;;;;8.44;44.77;95913.84;4959442;28;20236;-68
2022/03/28 03:25:10;;;;;;;18.08;12.68;;;;;;;8.36;44.95;95906.53;4962854;28;20220;-69
2022/03/28 03:27:38;;;;;;;21.67;13.00;;;;;;;8.50;44.77;95910.75;4964459;28;20235;-68
2022/03/28 03:30:06;;;;;;;20.92;12.25;;;;;;;8.45;44.71;95915.53;4967995;28;20239;-66
2022/03/28 03:32:32;;;;;;;21.15;13.27;;;;;;;8.24;45.21;95912.72;4958650;28;20227;-66
2022/03/28 03:34:57;;;;;;;31.20;13.87;;;;;;;8.05;46.15;95914.09;4954578;28;20217;-65
2022/03/28 03:37:23;;;;;;;22.10;12.57;;;;;;;8.21;45.67;95918.19;4966711;28;20204;-66
2022/03/28 03:39:48;;;;;;;22.45;12.95;;;;;;;8.26;45.63;95923.91;4961521;28;20224;-65
2022/03/28 03:42:13;;;;;;;28.10;13.73;;;;;;;8.27;45.46;95920.34;4963309;28;20225;-66
2022/03/28 03:44:39;;;;;;;27.10;14.10;;;;;;;8.08;45.94;95915.66;4964167;28;20286;-65
2022/03/28 03:47:05;;;;;;;29.98;13.25;;;;;;;7.91;46.37;95922.13;4994465;28;20295;-66
2022/03/28 03:49:30;;;;;;;23.38;13.57;;;;;;;8.05;46.22;95924.56;4965674;28;20204;-65
2022/03/28 03:51:56;;;;;;;27.48;13.98;;;;;;;8.05;46.53;95918.50;4962125;28;20228;-64
2022/03/28 03:54:21;;;;;;;30.17;13.33;;;;;;;7.94;46.45;95927.16;4964179;28;20699;-63
2022/03/28 03:56:47;;;;;;;22.87;13.57;;;;;;;7.72;46.83;95933.13;4964156;28;20258;-65
2022/03/28 03:59:12;;;;;;;30.83;15.83;;;;;;;7.85;47.11;95931.28;4960838;28;20267;-63
2022/03/28 04:01:38;;;;;;;35.43;16.17;;;;;;;8.06;46.36;95930.63;4961541;28;20193;-66
2022/03/28 04:04:03;;;;;;;37.03;16.03;;;;;;;8.16;46.35;95927.22;4965082;28;20232;-62
2022/03/28 04:06:29;;;;;;;33.17;14.57;;;;;;;8.16;45.95;95929.84;4954467;28;20236;-62
2022/03/28 04:08:54;;;;;;;33.03;14.03;;;;;;;7.97;46.40;95928.72;4957720;28;20219;-63
2022/03/28 04:11:20;;;;;;;34.35;14.25;;;;;;;7.88;46.93;95936.28;4963512;28;20232;-63
2022/03/28 04:13:45;;;;;;;24.30;13.00;;;;;;;7.87;46.81;95932.00;4963833;28;20216;-63
2022/03/28 04:16:11;;;;;;;31.42;13.60;;;;;;;7.85;46.84;95936.50;4961610;28;20231;-62
2022/03/28 04:18:36;;;;;;;33.27;15.03;;;;;;;7.94;46.73;95930.59;4969165;28;20220;-63
2022/03/28 04:21:02;;;;;;;23.77;12.83;;;;;;;7.94;46.84;95935.84;4965337;28;20235;-62
2022/03/28 04:23:27;;;;;;;18.50;11.53;;;;;;;7.95;46.70;95937.50;4966863;28;20269;-65
2022/03/28 04:25:53;;;;;;;18.37;12.30;;;;;;;7.92;46.68;95942.16;4963776;28;20706;-67
2022/03/28 04:28:19;;;;;;;16.02;12.32;;;;;;;7.90;47.07;95937.00;4962978;28;20217;-67
2022/03/28 04:30:44;;;;;;;15.63;12.65;;;;;;;7.94;46.95;95938.47;4965687;28;20312;-62
2022/03/28 04:33:11;;;;;;;22.23;12.02;;;;;;;7.89;46.93;95943.19;4967657;28;20235;-64
2022/03/28 04:35:37;;;;;;;19.37;12.67;;;;;;;7.99;47.07;95939.91;4968692;28;20306;-62
2022/03/28 04:38:07;;;;;;;22.75;13.25;;;;;;;8.07;46.70;95929.69;4967165;28;20222;-62
2022/03/28 04:40:33;;;;;;;26.95;12.95;;;;;;;8.04;46.82;95935.97;4997378;28;20197;-62
2022/03/28 04:43:00;;;;;;;25.97;16.17;;;;;;;8.10;46.40;95932.94;4964245;28;20289;-62
2022/03/28 04:45:27;;;;;;;27.50;16.48;;;;;;;8.12;46.96;95930.19;4963966;28;20221;-62
2022/03/28 04:47:52;;;;;;;26.60;17.30;;;;;;;8.13;47.09;95937.09;4957590;28;20224;-62
2022/03/28 04:50:17;;;;;;;30.93;16.47;;;;;;;8.11;47.20;95926.72;4961654;28;20234;-63
2022/03/28 04:52:43;;;;;;;27.70;15.77;;;;;;;8.09;47.02;95927.78;4960352;28;20299;-63
2022/03/28 04:55:09;;;;;;;32.38;16.25;;;;;;;8.10;46.91;95922.44;4965416;28;20318;-63
2022/03/28 04:57:34;;;;;;;29.65;16.80;;;;;;;8.07;47.28;95925.31;4964288;28;20240;-67
2022/03/28 05:00:00;;;;;;;30.77;15.87;;;;;;;8.23;47.01;95930.22;4965779;28;20223;-66
2022/03/28 05:02:26;;;;;;;23.27;15.88;;;;;;;8.16;46.97;95931.63;4964018;28;20229;-63
2022/03/28 05:04:51;;;;;;;23.83;15.45;;;;;;;8.13;47.09;95937.09;4962712;28;20199;-63
2022/03/28 05:07:27;;;;;;;24.30;16.58;;;;;;;7.98;47.45;95935.63;4956539;28;20239;-63
2022/03/28 05:09:53;;;;;;;30.48;15.38;;;;;;;8.18;46.64;95941.06;4973870;28;20224;-62
2022/03/28 05:12:22;;;;;;;26.33;18.10;;;;;;;8.13;46.06;95937.94;4956146;28;20327;-62
2022/03/28 05:14:49;;;;;;;32.60;23.42;;;;;;;8.17;44.67;95946.41;4957856;28;20223;-62
2022/03/28 05:17:15;;;;;;;40.10;24.67;;;;;;;7.97;45.31;95947.06;4951713;28;20212;-63
2022/03/28 05:19:43;;;;;;;34.30;21.83;;;;;;;8.06;44.86;95946.34;4959760;28;20249;-65
2022/03/28 05:22:08;;;;;;;28.02;21.33;;;;;;;7.95;44.46;95945.34;4953983;28;20254;-63
2022/03/28 05:24:34;;;;;;;30.58;20.85;;;;;;;8.01;44.60;95961.56;4951162;28;20232;-62
2022/03/28 05:27:00;;;;;;;38.20;18.58;;;;;;;7.78;44.87;95948.41;4954083;28;20338;-62
2022/03/28 05:29:25;;;;;;;24.20;17.37;;;;;;;7.89;45.04;95939.75;4961606;28;20278;-62
2022/03/28 05:31:51;;;;;;;20.48;16.75;;;;;;;7.76;45.18;95945.03;4965886;28;20215;-62
2022/03/28 05:34:16;;;;;;;30.07;16.33;;;;;;;7.89;45.28;95945.81;4956711;28;20232;-63
2022/03/28 05:36:43;;;;;;;27.73;16.27;;;;;;;7.94;45.08;95938.47;4959479;28;20259;-63
2022/03/28 05:39:09;;;;;;;21.73;15.43;;;;;;;8.10;45.31;95943.41;4958090;28;20229;-62
2022/03/28 05:41:35;;;;;;;19.02;11.77;;;;;;;8.19;45.16;95939.25;4952061;28;20220;-65
2022/03/28 05:44:01;;;;;;;18.17;11.60;;;;;;;8.43;44.86;95939.25;4961734;28;20216;-64
2022/03/28 05:46:27;;;;;;;19.97;10.80;;;;;;;8.63;44.16;95940.31;4958341;28;20196;-62
2022/03/28 05:48:53;;;;;;;15.73;11.00;;;;;;;8.66;44.68;95945.38;4957761;28;20238;-64
2022/03/28 05:51:19;;;;;;;13.90;10.88;;;;;;;8.80;44.38;95955.63;4954778;28;20314;-66
2022/03/28 05:53:45;;;;;;;14.73;10.57;;;;;;;8.77;44.39;95952.41;4957073;28;20236;-63
2022/03/28 05:56:10;;;;;;;16.02;10.82;;;;;;;8.56;44.34;95949.63;4960501;28;20227;-61
2022/03/28 05:58:36;;;;;;;14.73;10.80;;;;;;;8.73;44.61;95943.91;4959352;28;20284;-60
2022/03/28 06:01:01;;;;;;;17.58;11.43;;;;;;;8.75;43.98;95949.88;4959767;28;20696;-68
2022/03/28 06:03:27;;;;;;;15.63;11.07;;;;;;;8.91;43.66;95953.97;4959096;28;20238;-66
2022/03/28 06:05:53;;;;;;;18.70;11.73;;;;;;;8.80;44.29;95952.16;4961187;28;20228;-66
2022/03/28 06:08:18;;;;;;;25.55;12.82;;;;;;;8.90;43.64;95953.13;4955735;28;20227;-68
2022/03/28 06:10:44;;;;;;;15.35;11.75;;;;;;;8.93;43.65;95944.19;4953153;28;20215;-67
2022/03/28 06:13:09;;;;;;;15.75;11.80;;;;;;;8.99;43.81;95946.34;4958596;28;20489;-67
2022/03/28 06:15:37;;;;;;;15.25;12.90;;;;;;;9.02;43.67;95960.03;4958192;28;20272;-66
2022/03/28 06:18:06;;;;;;;16.77;13.43;;;;;;;9.18;43.26;95956.22;4953977;28;20321;-67
2022/03/28 06:20:32;;;;;;;19.63;14.02;;;;;;;9.08;43.62;95955.28;4953827;28;20387;-68
2022/03/28 06:22:59;;;;;;;18.35;13.48;;;;;;;9.23;43.47;95962.78;4952729;28;20318;-65
2022/03/28 06:25:24;;;;;;;21.02;15.27;;;;;;;9.34;43.17;95961.09;4953488;28;20212;-64
2022/03/28 06:27:50;;;;;;;20.33;16.35;;;;;;;9.29;42.75;95958.84;4953678;28;20225;-64
2022/03/28 06:30:19;;;;;;;31.38;16.55;;;;;;;9.38;42.88;95952.88;4961910;28;20573;-63
2022/03/28 06:32:45;;;;;;;22.42;16.83;;;;;;;9.47;42.57;95949.50;4957296;28;20283;-64
2022/03/28 06:35:11;;;;;;;21.35;16.65;;;;;;;9.44;42.92;95952.38;4962267;28;20227;-63
2022/03/28 06:37:37;;;;;;;21.42;14.98;;;;;;;9.48;42.72;95958.22;4965194;28;20246;-63
2022/03/28 06:40:04;;;;;;;21.30;16.15;;;;;;;9.60;42.53;95957.25;4963704;28;20271;-63
2022/03/28 06:42:33;;;;;;;21.38;17.00;;;;;;;9.66;42.42;95963.78;4963820;28;20487;-65
2022/03/28 06:44:59;;;;;;;20.85;16.80;;;;;;;9.68;42.57;95967.97;4951407;28;20311;-65
2022/03/28 06:47:25;;;;;;;21.40;15.00;;;;;;;9.79;41.78;95955.78;4959577;28;20229;-65
2022/03/28 06:49:51;;;;;;;21.23;14.10;;;;;;;9.92;41.79;95964.34;4962757;28;20208;-65
2022/03/28 06:52:17;;;;;;;30.63;14.98;;;;;;;10.06;42.00;95963.19;4965108;28;20225;-66
2022/03/28 06:54:43;;;;;;;19.15;13.57;;;;;;;9.95;41.79;95966.69;4960000;28;20521;-65
2022/03/28 06:57:09;;;;;;;20.30;13.60;;;;;;;10.24;41.41;95961.69;4958900;28;20224;-65
2022/03/28 06:59:34;;;;;;;16.75;13.15;;;;;;;10.34;40.98;95956.53;4957372;28;20228;-65
2022/03/28 07:02:00;;;;;;;20.75;13.68;;;;;;;10.28;41.46;95952.63;4966624;28;20299;-66
2022/03/28 07:04:25;;;;;;;21.38;13.35;;;;;;;10.43;40.87;95955.78;4968438;28;20306;-65
2022/03/28 07:06:51;;;;;;;20.13;13.65;;;;;;;10.45;40.90;95948.59;4966692;28;20237;-65
2022/03/28 07:09:17;;;;;;;15.05;13.10;;;;;;;10.59;40.80;95956.16;4957198;28;20243;-65
2022/03/28 07:11:43;;;;;;;23.52;14.48;;;;;;;10.60;40.80;95963.06;4958857;28;20221;-65
2022/03/28 07:14:09;;;;;;;17.02;13.55;;;;;;;10.66;40.61;95951.19;4970313;28;20220;-65
2022/03/28 07:16:35;;;;;;;17.33;14.65;;;;;;;10.80;40.57;95947.44;4969408;28;20221;-65
2022/03/28 07:19:01;;;;;;;16.30;13.82;;;;;;;10.89;40.45;95949.25;4965751;28;20517;-66
2022/03/28 07:21:27;;;;;;;22.20;14.40;;;;;;;10.83;40.56;95952.44;4963960;28;20231;-65
2022/03/28 07:23:53;;;;;;;17.58;12.82;;;;;;;10.99;40.11;95951.97;4971216;28;20243;-64
2022/03/28 07:26:21;;;;;;;17.85;14.00;;;;;;;11.17;39.88;95957.41;4977981;28;20336;-65
2022/03/28 07:28:47;;;;;;;21.05;14.55;;;;;;;11.19;40.08;95958.13;4966360;28;20232;-66
2022/03/28 07:31:13;;;;;;;15.75;12.70;;;;;;;11.27;39.68;95950.41;4968399;28;20228;-66
2022/03/28 07:33:40;;;;;;;23.00;14.18;;;;;;;11.40;39.75;95956.25;4966957;28;20248;-66
2022/03/28 07:36:06;;;;;;;19.83;13.88;;;;;;;11.50;39.43;95953.66;4969011;28;20234;-65
2022/03/28 07:38:32;;;;;;;18.85;15.43;;;;;;;11.63;39.25;95956.06;4966699;28;20224;-67
2022/03/28 07:40:57;;;;;;;20.88;15.00;;;;;;;11.68;39.11;95959.09;4960526;28;20208;-67
2022/03/28 07:43:23;;;;;;;17.83;12.88;;;;;;;11.85;39.02;95952.34;4957599;28;20209;-67
2022/03/28 07:45:50;;;;;;;20.00;12.00;;;;;;;11.80;39.01;95947.47;4967378;28;20239;-67
2022/03/28 07:48:16;;;;;;;15.05;12.98;;;;;;;11.91;39.02;95950.03;4967461;28;21221;-69
2022/03/28 07:50:42;;;;;;;16.00;12.55;;;;;;;11.94;38.71;95943.66;4969960;28;20364;-69
2022/03/28 07:53:08;;;;;;;17.33;12.60;;;;;;;12.09;38.64;95954.63;4958221;28;20569;-68
2022/03/28 07:55:33;;;;;;;21.52;12.02;;;;;;;12.17;38.77;95948.66;4956830;28;20311;-65
2022/03/28 07:58:02;;;;;;;14.48;11.57;;;;;;;12.28;38.46;95946.72;4954553;28;20554;-64
2022/03/28 08:00:29;;;;;;;14.45;11.32;;;;;;;12.40;37.91;95949.19;4989714;28;20224;-62
2022/03/28 08:02:55;;;;;;;17.85;12.20;;;;;;;12.54;37.97;95939.06;4965352;28;20224;-64
2022/03/28 08:05:21;;;;;;;14.27;12.23;;;;;;;12.58;37.79;95945.69;4960480;28;20251;-64
2022/03/28 08:07:49;;;;;;;14.80;11.80;;;;;;;12.54;37.78;95939.06;4968942;28;20235;-64
2022/03/28 08:10:14;;;;;;;18.25;11.38;;;;;;;12.47;38.49;95939.75;4958199;28;20227;-63
2022/03/28 08:12:42;;;;;;;15.30;12.27;;;;;;;12.40;38.68;95933.38;4964961;28;20238;-64
2022/03/28 08:15:08;;;;;;;12.52;11.30;;;;;;;12.51;37.98;95925.31;4962953;28;20224;-64
2022/03/28 08:17:35;;;;;;;15.63;12.13;;;;;;;12.55;38.80;95931.97;4960887;28;20251;-64
2022/03/28 08:20:01;;;;;;;17.35;12.32;;;;;;;12.56;40.21;95923.06;4954702;28;20227;-64
2022/03/28 08:22:27;;;;;;;15.95;11.60;;;;;;;12.74;38.16;95915.25;4957616;28;20297;-64
2022/03/28 08:24:52;;;;;;;15.00;11.65;;;;;;;12.78;40.38;95917.47;4949631;28;20224;-66
2022/03/28 08:27:18;;;;;;;12.93;11.63;;;;;;;12.84;39.05;95917.88;4971049;28;20229;-66
2022/03/28 08:29:43;;;;;;;17.60;13.82;;;;;;;12.99;39.54;95917.28;4936564;28;20232;-66
2022/03/28 08:32:09;;;;;;;17.67;12.32;;;;;;;13.10;38.90;95905.72;4943145;28;20248;-64
2022/03/28 08:34:34;;;;;;;15.65;12.23;;;;;;;13.15;38.26;95906.09;4935834;28;20307;-64
2022/03/28 08:37:00;;;;;;;16.33;11.93;;;;;;;13.25;37.67;95906.88;4943433;28;20328;-63
2022/03/28 08:39:25;;;;;;;15.50;12.60;;;;;;;13.52;38.64;95901.75;4946288;28;20279;-64
2022/03/28 08:41:51;;;;;;;18.90;12.85;;;;;;;13.44;39.18;95894.56;4941167;28;20228;-64
2022/03/28 08:44:18;;;;;;;15.30;12.10;;;;;;;13.58;37.86;95886.16;4938172;28;20225;-66
2022/03/28 08:46:45;;;;;;;14.70;12.25;;;;;;;13.59;36.99;95887.81;4967307;28;20280;-64
2022/03/28 08:49:11;;;;;;;16.63;12.60;;;;;;;13.73;36.50;95889.09;4944232;28;20479;-64
2022/03/28 08:51:36;;;;;;;16.23;11.85;;;;;;;13.80;37.75;95876.97;4942990;28;20233;-65
2022/03/28 08:54:02;;;;;;;15.02;12.52;;;;;;;13.92;36.26;95879.38;4969391;28;20256;-69
2022/03/28 08:56:28;;;;;;;17.52;11.88;;;;;;;14.00;35.41;95876.81;4936481;28;20267;-64
2022/03/28 08:58:53;;;;;;;17.25;12.73;;;;;;;13.94;36.51;95870.31;4937551;28;20213;-64
2022/03/28 09:01:20;;;;;;;18.50;10.95;;;;;;;13.94;36.71;95872.97;4944511;28;20233;-67
2022/03/28 09:03:47;;;;;;;14.45;11.82;;;;;;;13.93;36.83;95868.66;4913422;28;20232;-63
2022/03/28 09:06:30;;;;;;;15.70;12.32;;;;;;;14.07;37.21;95856.72;4942907;28;20232;-65
2022/03/28 09:09:09;;;;;;;17.95;12.77;;;;;;;14.09;37.81;95860.03;4941329;28;20253;-64
2022/03/28 09:11:35;;;;;;;25.48;13.05;;;;;;;14.40;36.28;95851.66;4942245;28;20221;-64
2022/03/28 09:14:00;;;;;;;18.42;14.30;;;;;;;14.34;36.23;95853.94;4952255;28;20208;-63
2022/03/28 09:16:29;;;;;;;17.77;12.35;;;;;;;14.24;36.94;95852.38;4944940;28;20218;-64
2022/03/28 09:18:56;;;;;;;16.45;11.70;;;;;;;14.44;34.88;95842.44;4937714;28;20232;-65
2022/03/28 09:21:25;;;;;;;17.88;13.00;;;;;;;14.34;36.33;95839.88;4933664;28;20252;-63
2022/03/28 09:23:52;;;;;;;13.02;11.27;;;;;;;14.37;36.70;95838.75;4957139;28;20237;-62
2022/03/28 09:26:22;;;;;;;17.42;12.02;;;;;;;14.53;35.44;95841.53;4960330;28;20239;-63
2022/03/28 09:28:58;;;;;;;14.18;11.65;;;;;;;14.54;37.06;95833.44;4961403;28;20213;-62
2022/03/28 09:31:31;;;;;;;15.38;10.68;;;;;;;14.74;36.79;95826.09;4978607;28;20236;-62
2022/03/28 09:34:10;;;;;;;16.33;12.07;;;;;;;15.22;34.39;95822.00;4959001;28;20228;-64
2022/03/28 09:36:53;;;;;;;17.40;13.15;;;;;;;15.37;34.52;95824.88;4957299;28;20307;-64
2022/03/28 09:39:26;;;;;;;14.45;11.27;;;;;;;15.57;33.65;95820.09;4955973;28;20291;-63
2022/03/28 09:42:08;;;;;;;12.68;10.75;;;;;;;15.66;33.83;95819.13;4963960;28;20259;-62
2022/03/28 09:44:55;;;;;;;14.93;10.57;;;;;;;15.93;32.89;95809.25;4955485;28;20244;-63
2022/03/28 09:47:23;;;;;;;16.05;11.13;;;;;;;16.08;32.92;95796.13;4956781;28;20244;-62
2022/03/28 09:49:54;;;;;;;15.75;10.68;;;;;;;16.16;31.98;95784.69;4968912;28;20215;-64
2022/03/28 09:52:26;;;;;;;14.88;11.52;;;;;;;16.22;31.50;95792.78;4966940;28;20219;-62
2022/03/28 09:54:56;;;;;;;14.65;10.30;;;;;;;16.20;32.24;95786.84;4963230;28;20287;-64
2022/03/28 09:57:31;;;;;;;15.90;10.75;;;;;;;16.60;32.14;95779.81;4961110;28;20236;-64
2022/03/28 10:00:12;;;;;;;15.75;9.85;;;;;;;16.91;32.44;95777.22;4962122;28;20223;-64
2022/03/28 10:02:38;;;;;;;12.43;9.93;;;;;;;17.15;29.65;95778.13;4955268;28;20351;-64
2022/03/28 10:05:05;;;;;;;18.63;10.50;;;;;;;17.00;29.41;95780.69;4962100;28;20208;-63
2022/03/28 10:07:31;;;;;;;11.88;10.63;;;;;;;17.08;30.19;95771.84;4966177;28;20219;-63
2022/03/28 10:09:58;;;;;;;14.70;10.38;;;;;;;16.97;30.03;95768.59;4964291;28;20220;-64
2022/03/28 10:12:24;;;;;;;13.43;10.48;;;;;;;17.23;30.18;95754.16;4962221;28;20452;-64
2022/03/28 10:14:57;;;;;;;15.07;10.27;;;;;;;17.38;29.97;95751.59;4960016;28;20221;-64
2022/03/28 10:17:24;;;;;;;13.40;10.27;;;;;;;17.59;29.16;95742.97;4954251;28;20232;-63
2022/03/28 10:19:50;;;;;;;16.70;10.75;;;;;;;17.41;29.40;95730.78;4953349;28;20200;-63
2022/03/28 10:22:21;;;;;;;12.32;9.63;;;;;;;17.64;29.70;95735.25;4986026;28;20274;-63
2022/03/28 10:24:50;;;;;;;12.30;10.23;;;;;;;17.70;28.88;95723.94;4961370;28;20220;-63
2022/03/28 10:27:17;;;;;;;13.93;10.43;;;;;;;17.66;29.37;95721.81;4963639;28;20239;-63
2022/03/28 10:29:44;;;;;;;13.90;9.88;;;;;;;17.73;28.98;95715.59;4986688;28;20789;-62
2022/03/28 10:32:13;;;;;;;12.85;10.32;;;;;;;17.63;28.88;95713.16;4960211;28;20339;-63
2022/03/28 10:34:45;;;;;;;13.70;10.60;;;;;;;17.95;29.03;95705.94;4955048;28;20251;-62
2022/03/28 10:37:38;;;;;;;14.80;10.80;;;;;;;17.90;29.08;95702.19;4958977;28;20228;-64
2022/03/28 10:40:17;;;;;;;11.98;10.63;;;;;;;18.08;29.36;95687.53;4960324;28;20224;-64
2022/03/28 10:43:04;;;;;;;14.77;9.77;;;;;;;18.41;27.75;95689.84;4960978;28;20228;-64
2022/03/28 10:45:34;;;;;;;15.38;9.55;;;;;;;18.52;28.36;95691.19;4957697;28;20228;-64
2022/03/28 10:48:00;;;;;;;13.60;9.38;;;;;;;18.64;28.01;95683.59;4959943;28;20228;-65
2022/03/28 10:50:43;;;;;;;13.23;10.10;;;;;;;18.59;28.31;95680.66;4957449;28;20239;-64
2022/03/28 10:53:25;;;;;;;11.48;9.13;;;;;;;18.50;28.86;95675.44;4960089;28;20209;-64
2022/03/28 10:55:58;;;;;;;15.30;9.85;;;;;;;18.56;28.25;95670.38;4958262;28;20244;-63
2022/03/28 10:58:25;;;;;;;14.75;9.52;;;;;;;18.65;28.10;95671.91;4958235;28;20258;-64
2022/03/28 11:01:05;;;;;;;12.45;9.27;;;;;;;18.45;28.46;95674.34;4964635;28;20243;-64
2022/03/28 11:03:37;;;;;;;12.52;9.27;;;;;;;18.24;29.72;95669.75;4953524;28;20242;-63
2022/03/28 11:06:03;;;;;;;13.27;9.85;;;;;;;18.01;29.67;95669.81;4957193;28;20221;-63
2022/03/28 11:08:33;;;;;;;13.95;10.30;;;;;;;18.12;30.40;95658.69;4962870;28;20226;-64
2022/03/28 11:11:18;;;;;;;16.42;10.68;;;;;;;18.04;30.60;95656.97;4962981;28;20307;-62
2022/03/28 11:14:01;;;;;;;15.57;10.82;;;;;;;17.88;28.49;95645.66;4959845;28;20253;-63
2022/03/28 11:16:48;;;;;;;12.77;9.98;;;;;;;17.82;28.86;95655.19;4956182;28;20553;-63
2022/03/28 11:19:32;;;;;;;13.23;10.00;;;;;;;17.82;28.78;95650.69;4980770;28;20224;-63
2022/03/28 11:22:04;;;;;;;18.33;11.15;;;;;;;17.91;28.59;95640.81;4958680;28;20271;-63
2022/03/28 11:24:54;;;;;;;13.93;9.90;;;;;;;17.85;28.54;95637.06;4939469;28;20340;-62